Disclaimer

Please do not use the information listed here in-flight or in-navigation, as they are not provided to us by the airports but are provided by volunteers, so they might be outdated.

Search


Regions


Airport information page

No radio frequency information is available.

Airport informations:
Latitude: 45° 39' 30.00" N
Longitude: 000° 19' 03.00" W
Elevation: 102 feet - 31 meters
Operating hours: From sunrise to sunset (SR-SS)
Operating agency: Military
Timezone: UTC+1(+2DT) - Last Sunday in March to last Sunday in October
Fuel: Jet A1+, Jet A1 with icing inhibitor.

100/130 MIL Spec, low lead, aviation gasoline (BLUE)

Runway information:
05/23 - 7949 x 148 feet< - >2423 x 45 meters
09/27 - 6152 x 197 feet< - >1875 x 60 meters

Recent METARs:
LFBG 191630Z AUTO 03014KT 9999 FEW010 05/M00 Q1005 TEMPO 04015G25KT
LFBG 191700Z AUTO 03013KT CAVOK 05/M00 Q1005
LFBG 191730Z AUTO 03011KT CAVOK 05/M00 Q1005

Airport on the map: